Time;durP1;ratioP1;P1;durP2;ratioP2;P2;SDS_P1;SDS_P2;PMS_P1;PMS_P2;Temp;Humidity;BMP_temperature;BMP_pressure;BME280_temperature;BME280_humidity;BME280_pressure;Samples;Min_cycle;Max_cycle;Signal;HPM_P1;HPM_P2
2023/03/14 00:00:29;;;;;;;3.40;1.30;;;14.10;99.70;;;;;;5092915;28;20082;-67
2023/03/14 00:02:55;;;;;;;2.30;1.10;;;14.10;99.70;;;;;;5111251;28;20016;-67
2023/03/14 00:05:21;;;;;;;3.47;1.48;;;14.00;99.60;;;;;;5091152;28;20063;-67
2023/03/14 00:07:46;;;;;;;1.70;1.30;;;14.00;99.70;;;;;;5109742;28;20114;-67
2023/03/14 00:10:14;;;;;;;3.10;1.23;;;14.00;99.70;;;;;;5080522;28;20071;-67
2023/03/14 00:12:41;;;;;;;3.55;1.60;;;13.90;99.70;;;;;;5090839;28;20046;-67
2023/03/14 00:15:07;;;;;;;3.08;1.27;;;13.90;99.70;;;;;;5091967;28;20031;-67
2023/03/14 00:17:34;;;;;;;1.75;1.30;;;13.80;99.70;;;;;;5110258;28;20035;-66
2023/03/14 00:20:07;;;;;;;1.52;1.20;;;13.80;99.80;;;;;;5092240;28;20410;-66
2023/03/14 00:22:34;;;;;;;3.05;1.05;;;13.80;99.80;;;;;;5092860;28;20020;-67
2023/03/14 00:25:00;;;;;;;2.58;1.60;;;13.80;99.90;;;;;;5088680;28;20504;-67
2023/03/14 00:27:26;;;;;;;2.47;1.60;;;13.70;99.90;;;;;;5107522;28;20521;-67
2023/03/14 00:29:52;;;;;;;3.90;2.28;;;13.70;99.90;;;;;;5110307;28;20028;-67
2023/03/14 00:32:17;;;;;;;2.47;1.70;;;13.70;99.90;;;;;;5105269;28;20040;-68
2023/03/14 00:34:43;;;;;;;3.90;1.70;;;13.60;99.90;;;;;;5100529;28;20024;-67
2023/03/14 00:37:09;;;;;;;2.38;1.60;;;13.60;99.90;;;;;;5102910;28;20028;-66
2023/03/14 00:39:34;;;;;;;2.35;1.50;;;13.60;99.90;;;;;;5090522;28;20027;-66
2023/03/14 00:42:00;;;;;;;3.03;1.20;;;13.50;99.90;;;;;;5104323;28;20374;-67
2023/03/14 00:44:26;;;;;;;1.98;1.30;;;13.50;99.90;;;;;;5090884;28;20030;-66
2023/03/14 00:46:51;;;;;;;2.42;1.60;;;13.50;99.90;;;;;;5101746;28;20055;-67
2023/03/14 00:49:17;;;;;;;2.00;1.20;;;13.40;99.90;;;;;;5106684;28;20028;-67
2023/03/14 00:51:43;;;;;;;1.73;1.20;;;13.40;99.90;;;;;;5101183;28;20059;-67
2023/03/14 00:54:08;;;;;;;1.92;1.20;;;13.40;99.90;;;;;;5092955;28;20112;-67
2023/03/14 00:56:34;;;;;;;2.97;1.38;;;13.40;99.90;;;;;;5091700;28;20024;-67
2023/03/14 00:58:59;;;;;;;4.50;1.80;;;13.40;99.90;;;;;;5095511;28;20040;-67
2023/03/14 01:01:28;;;;;;;3.33;1.85;;;13.40;99.90;;;;;;5091656;28;20036;-67
2023/03/14 01:03:55;;;;;;;2.42;1.30;;;13.30;99.90;;;;;;5091254;28;20028;-67
2023/03/14 01:06:26;;;;;;;2.55;1.60;;;13.30;99.90;;;;;;5096213;27;20123;-67
2023/03/14 01:08:53;;;;;;;3.17;1.42;;;13.30;99.90;;;;;;5090071;28;20017;-66
2023/03/14 01:11:22;;;;;;;2.72;1.73;;;13.30;99.90;;;;;;5095383;28;20062;-66
2023/03/14 01:13:48;;;;;;;2.45;1.70;;;13.20;99.90;;;;;;5086205;28;20034;-67
2023/03/14 01:16:14;;;;;;;2.20;1.60;;;13.20;99.90;;;;;;5095031;28;20106;-67
2023/03/14 01:18:43;;;;;;;2.78;1.60;;;13.20;99.90;;;;;;5096385;28;20034;-67
2023/03/14 01:21:26;;;;;;;2.08;1.45;;;13.20;99.90;;;;;;5111330;28;20031;-67
2023/03/14 01:23:53;;;;;;;2.92;1.58;;;13.20;99.90;;;;;;5098270;28;20035;-67
2023/03/14 01:26:22;;;;;;;4.05;1.75;;;13.10;99.90;;;;;;5114903;28;20077;-67
2023/03/14 01:28:48;;;;;;;2.33;1.30;;;13.10;99.90;;;;;;5098669;28;20032;-66
2023/03/14 01:31:14;;;;;;;2.03;1.40;;;13.10;99.90;;;;;;5103630;28;20036;-66
2023/03/14 01:33:40;;;;;;;2.92;1.48;;;13.10;99.90;;;;;;5089402;28;20036;-67
2023/03/14 01:36:07;;;;;;;2.60;1.35;;;13.00;99.90;;;;;;5105812;28;20428;-66
2023/03/14 01:38:34;;;;;;;2.42;1.50;;;13.00;99.90;;;;;;5093296;28;20032;-66
2023/03/14 01:41:00;;;;;;;3.00;1.77;;;13.00;99.90;;;;;;5107923;28;20032;-67
2023/03/14 01:43:27;;;;;;;1.85;1.27;;;13.00;99.90;;;;;;5093897;28;20028;-67
2023/03/14 01:46:04;;;;;;;2.83;1.60;;;13.00;99.90;;;;;;5099802;28;20399;-66
2023/03/14 01:48:38;;;;;;;2.05;1.40;;;13.00;99.90;;;;;;5097118;28;20024;-65
2023/03/14 01:51:06;;;;;;;1.67;1.23;;;13.00;99.90;;;;;;5087575;28;20369;-66
2023/03/14 01:53:33;;;;;;;1.90;1.50;;;13.10;99.90;;;;;;5094921;28;20028;-66
2023/03/14 01:55:59;;;;;;;2.42;1.67;;;13.10;99.90;;;;;;5075880;28;20464;-66
2023/03/14 01:58:28;;;;;;;3.10;1.40;;;13.10;99.90;;;;;;5073884;28;20074;-66
2023/03/14 02:00:57;;;;;;;1.85;1.40;;;13.10;99.90;;;;;;5096648;28;20031;-66
2023/03/14 02:03:24;;;;;;;2.40;1.38;;;13.10;99.90;;;;;;5093690;28;20031;-66
2023/03/14 02:05:51;;;;;;;2.50;1.52;;;13.10;99.90;;;;;;5077533;28;20028;-66
2023/03/14 02:08:22;;;;;;;1.75;1.10;;;13.20;99.90;;;;;;5088464;28;20395;-66
2023/03/14 02:10:50;;;;;;;2.05;1.20;;;13.20;99.90;;;;;;5092124;28;20031;-67
2023/03/14 02:13:18;;;;;;;1.60;1.40;;;13.20;99.90;;;;;;5094794;28;20468;-68
2023/03/14 02:15:44;;;;;;;2.30;1.60;;;13.20;99.90;;;;;;5089323;28;20032;-68
2023/03/14 02:18:10;;;;;;;1.67;1.08;;;13.10;99.90;;;;;;5092293;28;20024;-68
2023/03/14 02:20:45;;;;;;;1.90;1.17;;;13.20;99.90;;;;;;5086321;28;20030;-68
2023/03/14 02:23:12;;;;;;;4.60;1.58;;;13.10;99.90;;;;;;5094538;28;20467;-68
2023/03/14 02:26:05;;;;;;;2.38;1.38;;;13.10;99.90;;;;;;5089808;28;20028;-68
2023/03/14 02:28:31;;;;;;;1.90;1.02;;;13.10;99.90;;;;;;5092263;28;20020;-68
2023/03/14 02:30:57;;;;;;;2.80;1.10;;;13.10;99.90;;;;;;5097619;28;20035;-68
2023/03/14 02:33:23;;;;;;;1.35;1.10;;;13.00;99.90;;;;;;5094668;28;20024;-68
2023/03/14 02:35:59;;;;;;;2.30;1.40;;;13.10;99.90;;;;;;5091567;28;20024;-67
2023/03/14 02:38:37;;;;;;;2.13;1.30;;;13.10;99.90;;;;;;5093948;28;20020;-68
2023/03/14 02:41:03;;;;;;;2.38;1.67;;;13.10;99.90;;;;;;5079218;28;20448;-67
2023/03/14 02:43:29;;;;;;;1.85;1.23;;;13.10;99.90;;;;;;5073696;28;20024;-68
2023/03/14 02:45:55;;;;;;;1.48;1.17;;;13.10;99.90;;;;;;5102399;28;20035;-67
2023/03/14 02:48:41;;;;;;;2.20;1.50;;;13.10;99.90;;;;;;5111230;28;20031;-67
2023/03/14 02:51:07;;;;;;;2.70;1.58;;;13.10;99.90;;;;;;5085322;27;20059;-68
2023/03/14 02:53:35;;;;;;;2.60;1.30;;;13.10;99.90;;;;;;5097720;28;20027;-68
2023/03/14 02:56:01;;;;;;;2.22;1.50;;;13.10;99.90;;;;;;5099960;28;20030;-68
2023/03/14 02:58:27;;;;;;;5.40;1.50;;;13.10;99.90;;;;;;5113390;28;20059;-68
2023/03/14 03:00:53;;;;;;;2.53;1.52;;;13.10;99.90;;;;;;5095669;28;20024;-68
2023/03/14 03:03:19;;;;;;;1.45;1.08;;;13.10;99.90;;;;;;5093800;28;20494;-68
2023/03/14 03:05:50;;;;;;;1.50;1.00;;;13.10;99.90;;;;;;5097546;28;20058;-68
2023/03/14 03:08:15;;;;;;;1.55;1.13;;;13.10;99.90;;;;;;5089324;28;20029;-68
2023/03/14 03:10:41;;;;;;;1.88;1.30;;;13.10;99.90;;;;;;5092582;28;20030;-68
2023/03/14 03:13:07;;;;;;;2.65;1.40;;;13.10;99.90;;;;;;5112471;28;20076;-68
2023/03/14 03:15:32;;;;;;;2.80;1.30;;;13.10;99.90;;;;;;5099198;28;20028;-68
2023/03/14 03:17:58;;;;;;;3.10;1.20;;;13.00;99.90;;;;;;5102601;28;20036;-68
2023/03/14 03:20:23;;;;;;;1.20;1.08;;;13.00;99.90;;;;;;5092321;28;20588;-68
2023/03/14 03:22:49;;;;;;;2.17;1.20;;;13.00;99.90;;;;;;5113609;28;20114;-68
2023/03/14 03:25:15;;;;;;;1.92;1.10;;;13.00;99.90;;;;;;5098529;28;20036;-67
2023/03/14 03:27:41;;;;;;;3.10;1.33;;;13.00;99.90;;;;;;5104076;28;20078;-68
2023/03/14 03:30:08;;;;;;;3.10;1.13;;;13.00;99.90;;;;;;5090684;28;20028;-68
2023/03/14 03:32:34;;;;;;;1.70;1.00;;;13.00;99.90;;;;;;5111306;28;20035;-68
2023/03/14 03:35:01;;;;;;;3.00;1.10;;;13.00;99.90;;;;;;5093031;28;20081;-68
2023/03/14 03:37:26;;;;;;;1.65;1.02;;;13.00;99.90;;;;;;5097826;28;20383;-69
2023/03/14 03:39:52;;;;;;;1.80;1.08;;;13.00;99.90;;;;;;5105207;28;20028;-69
2023/03/14 03:42:18;;;;;;;1.95;1.10;;;12.90;99.90;;;;;;5101698;28;20081;-69
2023/03/14 03:44:44;;;;;;;5.72;1.45;;;12.90;99.90;;;;;;5087801;28;20036;-69
2023/03/14 03:47:10;;;;;;;3.28;1.40;;;12.90;99.90;;;;;;5097231;28;20043;-69
2023/03/14 03:49:36;;;;;;;4.10;1.27;;;12.90;99.90;;;;;;5090305;28;20028;-69
2023/03/14 03:52:01;;;;;;;1.27;1.15;;;12.90;99.90;;;;;;5075194;28;20442;-69
2023/03/14 03:54:28;;;;;;;1.15;1.05;;;12.90;99.90;;;;;;5092328;28;20089;-68
2023/03/14 03:56:54;;;;;;;2.00;1.20;;;12.90;99.90;;;;;;5096756;28;20258;-68
2023/03/14 03:59:20;;;;;;;2.95;1.20;;;12.90;99.90;;;;;;5088689;28;20646;-68
2023/03/14 04:01:46;;;;;;;2.42;1.55;;;12.90;99.90;;;;;;5088100;28;20036;-69
2023/03/14 04:04:12;;;;;;;1.98;1.05;;;12.90;99.90;;;;;;5091679;28;20530;-67
2023/03/14 04:06:37;;;;;;;1.60;1.25;;;12.90;99.90;;;;;;5091898;28;20032;-68
2023/03/14 04:09:04;;;;;;;2.72;1.60;;;12.90;99.90;;;;;;5092226;28;20022;-68
2023/03/14 04:11:29;;;;;;;1.65;1.20;;;12.80;99.90;;;;;;5091468;28;20036;-68
2023/03/14 04:13:55;;;;;;;1.77;1.10;;;12.80;99.90;;;;;;5091466;28;20046;-68
2023/03/14 04:16:23;;;;;;;2.05;1.10;;;12.80;99.90;;;;;;5096146;28;20036;-68
2023/03/14 04:18:49;;;;;;;2.65;1.38;;;12.80;99.90;;;;;;5093290;28;20067;-68
2023/03/14 04:21:15;;;;;;;1.92;1.33;;;12.70;99.90;;;;;;5093334;28;20065;-67
2023/03/14 04:23:41;;;;;;;1.90;1.20;;;12.70;99.90;;;;;;5092170;28;20182;-68
2023/03/14 04:26:07;;;;;;;2.25;1.23;;;12.70;99.90;;;;;;5084845;28;20024;-67
2023/03/14 04:28:33;;;;;;;2.58;1.15;;;12.70;99.90;;;;;;5087536;28;20036;-67
2023/03/14 04:30:58;;;;;;;1.98;1.23;;;12.70;99.90;;;;;;5095916;28;20027;-68
2023/03/14 04:33:24;;;;;;;3.08;1.00;;;12.70;99.90;;;;;;5092098;28;20043;-68
2023/03/14 04:35:54;;;;;;;1.50;1.05;;;12.70;99.90;;;;;;5088931;28;20111;-67
2023/03/14 04:38:19;;;;;;;1.25;0.90;;;12.70;99.90;;;;;;5090172;28;20027;-67
2023/03/14 04:40:45;;;;;;;1.65;1.13;;;12.80;99.90;;;;;;5089509;28;20418;-68
2023/03/14 04:43:11;;;;;;;1.30;1.10;;;12.80;99.90;;;;;;5084420;28;20036;-67
2023/03/14 04:45:40;;;;;;;1.50;1.13;;;12.70;99.90;;;;;;5090436;28;20024;-67
2023/03/14 04:48:06;;;;;;;3.00;1.17;;;12.70;99.90;;;;;;5102071;28;20040;-68
2023/03/14 04:50:32;;;;;;;3.28;1.45;;;12.70;99.90;;;;;;5097092;28;20020;-68
2023/03/14 04:52:57;;;;;;;1.65;1.20;;;12.70;99.90;;;;;;5090901;28;20036;-67
2023/03/14 04:55:23;;;;;;;1.00;0.90;;;12.70;99.90;;;;;;5090804;28;20020;-67
2023/03/14 04:57:48;;;;;;;3.42;1.20;;;12.70;99.90;;;;;;5092039;28;20062;-68
2023/03/14 05:00:14;;;;;;;2.17;1.40;;;12.70;99.90;;;;;;5079370;28;20572;-68
2023/03/14 05:02:40;;;;;;;2.83;1.52;;;12.70;99.90;;;;;;5097241;28;20391;-68
2023/03/14 05:05:06;;;;;;;2.28;1.20;;;12.70;99.90;;;;;;5100813;28;20020;-67
2023/03/14 05:07:31;;;;;;;2.60;1.23;;;12.70;99.90;;;;;;5087963;28;20027;-68
2023/03/14 05:09:57;;;;;;;2.25;1.20;;;12.70;99.90;;;;;;5096052;28;20031;-67
2023/03/14 05:12:23;;;;;;;3.70;1.50;;;12.70;99.90;;;;;;5085946;28;20445;-66
2023/03/14 05:14:48;;;;;;;1.90;1.30;;;12.70;99.90;;;;;;5089290;28;20063;-67
2023/03/14 05:17:15;;;;;;;1.70;1.00;;;12.80;99.90;;;;;;5096924;28;20074;-67
2023/03/14 05:19:41;;;;;;;1.65;1.05;;;12.70;99.90;;;;;;5090676;28;20447;-67
2023/03/14 05:22:07;;;;;;;2.45;1.27;;;12.70;99.90;;;;;;5100602;28;20028;-68
2023/03/14 05:24:32;;;;;;;4.10;1.65;;;12.70;99.90;;;;;;5108209;28;20046;-68
2023/03/14 05:26:58;;;;;;;1.92;1.30;;;12.70;99.90;;;;;;5086373;28;20078;-68
2023/03/14 05:29:24;;;;;;;2.35;1.25;;;12.70;99.90;;;;;;5087239;28;20024;-66
2023/03/14 05:31:49;;;;;;;3.30;1.30;;;12.70;99.90;;;;;;5089493;28;20514;-66
2023/03/14 05:34:15;;;;;;;2.25;1.27;;;12.80;99.90;;;;;;5091333;28;20028;-67
2023/03/14 05:36:41;;;;;;;1.95;1.27;;;12.70;99.90;;;;;;5089871;28;20437;-66
2023/03/14 05:39:06;;;;;;;2.08;1.10;;;12.70;99.90;;;;;;5088811;28;20152;-66
2023/03/14 05:41:32;;;;;;;2.25;1.30;;;12.70;99.90;;;;;;5087745;28;20077;-67
2023/03/14 05:43:58;;;;;;;3.25;1.50;;;12.70;99.90;;;;;;5098633;28;20028;-66
2023/03/14 05:46:23;;;;;;;2.55;1.30;;;12.70;99.90;;;;;;5087581;28;20024;-67
2023/03/14 05:48:49;;;;;;;2.42;1.27;;;12.70;99.90;;;;;;5087712;28;20641;-66
2023/03/14 05:51:15;;;;;;;3.42;1.45;;;12.70;99.90;;;;;;5091493;28;20028;-68
2023/03/14 05:53:40;;;;;;;1.88;1.27;;;12.70;99.90;;;;;;5092810;28;20110;-68
2023/03/14 05:56:06;;;;;;;2.35;1.23;;;12.70;99.90;;;;;;5092199;28;20032;-67
2023/03/14 05:58:32;;;;;;;1.75;1.17;;;12.70;99.90;;;;;;5094399;28;20070;-67
2023/03/14 06:01:01;;;;;;;1.80;1.20;;;12.70;99.90;;;;;;5091536;28;20475;-68
2023/03/14 06:03:26;;;;;;;4.07;1.50;;;12.70;99.90;;;;;;5081128;28;20032;-67
2023/03/14 06:05:52;;;;;;;2.65;1.30;;;12.80;99.90;;;;;;5105799;28;20027;-67
2023/03/14 06:08:18;;;;;;;5.38;1.50;;;12.80;99.90;;;;;;5077017;28;20051;-65
2023/03/14 06:10:43;;;;;;;3.10;1.63;;;12.80;99.90;;;;;;5106663;28;20034;-64
2023/03/14 06:13:09;;;;;;;2.47;1.63;;;12.80;99.90;;;;;;5103841;28;20384;-65
2023/03/14 06:15:35;;;;;;;2.50;1.33;;;12.80;99.80;;;;;;5106239;28;20385;-66
2023/03/14 06:18:01;;;;;;;2.65;1.30;;;12.90;99.80;;;;;;5103458;28;20051;-66
2023/03/14 06:20:27;;;;;;;2.17;1.33;;;12.90;99.70;;;;;;5108664;28;20067;-67
2023/03/14 06:22:52;;;;;;;2.58;1.35;;;12.90;99.60;;;;;;5088000;28;20052;-68
2023/03/14 06:25:18;;;;;;;3.45;1.55;;;12.90;99.60;;;;;;5096027;28;20458;-69
2023/03/14 06:27:44;;;;;;;3.33;1.40;;;13.00;99.50;;;;;;5077974;28;20293;-68
2023/03/14 06:30:10;;;;;;;2.35;1.35;;;13.00;99.50;;;;;;5103281;28;20489;-67
2023/03/14 06:32:36;;;;;;;3.15;1.40;;;13.00;99.40;;;;;;5098095;28;20041;-68
2023/03/14 06:35:02;;;;;;;2.10;1.25;;;13.00;99.40;;;;;;5091923;28;20027;-68
2023/03/14 06:37:28;;;;;;;3.05;1.33;;;13.00;99.30;;;;;;5090656;28;20042;-67
2023/03/14 06:39:55;;;;;;;2.83;1.42;;;13.00;99.30;;;;;;5094464;28;20055;-66
2023/03/14 06:42:21;;;;;;;3.17;1.42;;;13.00;99.20;;;;;;5092400;28;20115;-67
2023/03/14 06:44:47;;;;;;;2.03;1.33;;;13.10;99.20;;;;;;5096456;28;20514;-67
2023/03/14 06:47:12;;;;;;;2.22;1.25;;;13.10;99.10;;;;;;5100882;28;20067;-66
2023/03/14 06:49:38;;;;;;;2.25;1.40;;;13.10;99.10;;;;;;5098839;28;20390;-65
2023/03/14 06:52:04;;;;;;;2.83;1.50;;;13.20;99.00;;;;;;5101552;28;20553;-66
2023/03/14 06:54:29;;;;;;;2.25;1.38;;;13.20;99.00;;;;;;5096350;28;20027;-68
2023/03/14 06:56:55;;;;;;;2.88;1.42;;;13.20;98.90;;;;;;5101328;28;20089;-68
2023/03/14 06:59:21;;;;;;;2.45;1.10;;;13.20;98.90;;;;;;5089565;28;20039;-68
2023/03/14 07:01:47;;;;;;;3.85;1.42;;;13.30;98.80;;;;;;5091660;28;20057;-68
2023/03/14 07:04:13;;;;;;;2.17;1.38;;;13.30;98.80;;;;;;5083045;28;20094;-68
2023/03/14 07:06:43;;;;;;;2.35;1.40;;;13.30;98.70;;;;;;5079790;28;20474;-68
2023/03/14 07:09:10;;;;;;;2.50;1.40;;;13.40;98.70;;;;;;5086510;28;20028;-68
2023/03/14 07:11:35;;;;;;;2.58;1.40;;;13.40;98.60;;;;;;5090693;28;20036;-68
2023/03/14 07:14:01;;;;;;;2.00;1.25;;;13.50;98.50;;;;;;5088260;28;20031;-67
2023/03/14 07:16:28;;;;;;;4.28;1.95;;;13.50;98.50;;;;;;5093251;28;20534;-67
2023/03/14 07:18:54;;;;;;;3.40;1.40;;;13.50;98.50;;;;;;5088996;28;20024;-69
2023/03/14 07:21:20;;;;;;;5.07;1.88;;;13.50;98.40;;;;;;5105025;28;20104;-68
2023/03/14 07:23:45;;;;;;;2.38;1.45;;;13.50;98.30;;;;;;5091429;28;20119;-68
2023/03/14 07:26:11;;;;;;;4.90;1.58;;;13.50;98.30;;;;;;5098448;28;20383;-67
2023/03/14 07:28:36;;;;;;;2.75;1.73;;;13.50;98.30;;;;;;5090968;28;20386;-69
2023/03/14 07:31:02;;;;;;;5.45;1.98;;;13.50;98.30;;;;;;5097159;28;20480;-68
2023/03/14 07:33:28;;;;;;;3.00;1.60;;;13.50;98.30;;;;;;5086280;28;20076;-68
2023/03/14 07:35:54;;;;;;;3.80;1.52;;;13.50;98.20;;;;;;5085428;28;20048;-68
2023/03/14 07:38:20;;;;;;;5.78;1.45;;;13.60;98.30;;;;;;5090156;28;20087;-68
2023/03/14 07:40:45;;;;;;;47.38;2.97;;;13.60;98.20;;;;;;5111002;28;20023;-67
2023/03/14 07:43:11;;;;;;;2.45;1.33;;;13.60;98.20;;;;;;5097550;28;20027;-68
2023/03/14 07:45:36;;;;;;;3.72;1.55;;;13.60;98.20;;;;;;5103888;28;20027;-68
2023/03/14 07:48:02;;;;;;;3.35;1.60;;;13.60;98.10;;;;;;5096540;28;20084;-67
2023/03/14 07:50:28;;;;;;;4.18;1.95;;;13.50;98.00;;;;;;5091243;28;20039;-68
2023/03/14 07:52:54;;;;;;;7.07;2.55;;;13.50;98.10;;;;;;5086904;28;20273;-67
2023/03/14 07:55:20;;;;;;;4.95;1.90;;;13.50;98.00;;;;;;5084269;28;20480;-68
2023/03/14 07:57:46;;;;;;;6.28;2.05;;;13.50;98.00;;;;;;5076245;28;20082;-67
2023/03/14 08:00:13;;;;;;;2.80;1.60;;;13.50;98.00;;;;;;5084940;28;20059;-68
2023/03/14 08:02:40;;;;;;;3.20;1.35;;;13.50;98.00;;;;;;5088233;28;20080;-68
2023/03/14 08:05:06;;;;;;;4.10;1.85;;;13.50;98.00;;;;;;5103988;28;20023;-69
2023/03/14 08:07:31;;;;;;;3.05;1.40;;;13.50;98.00;;;;;;5095087;28;20036;-69
2023/03/14 08:09:57;;;;;;;4.25;1.75;;;13.50;98.00;;;;;;5088215;28;20026;-68
2023/03/14 08:12:23;;;;;;;5.22;1.65;;;13.50;98.00;;;;;;5092834;28;20088;-69
2023/03/14 08:14:48;;;;;;;4.55;1.88;;;13.50;98.00;;;;;;5084776;28;20019;-70
2023/03/14 08:17:14;;;;;;;4.60;2.17;;;13.60;98.10;;;;;;5085949;28;20180;-69
2023/03/14 08:19:41;;;;;;;2.65;1.60;;;13.70;98.10;;;;;;5083991;28;20021;-70
2023/03/14 08:22:07;;;;;;;3.63;1.60;;;13.70;98.00;;;;;;5107319;28;20499;-69
2023/03/14 08:24:33;;;;;;;6.18;2.35;;;13.80;98.00;;;;;;5100541;28;20039;-68
2023/03/14 08:26:58;;;;;;;5.00;1.58;;;13.90;98.00;;;;;;5089414;28;20387;-70
2023/03/14 08:29:24;;;;;;;3.00;1.55;;;13.90;97.90;;;;;;5089877;28;20043;-68
2023/03/14 08:31:50;;;;;;;4.75;1.55;;;14.00;97.80;;;;;;5109977;28;20111;-69
2023/03/14 08:34:16;;;;;;;6.15;1.70;;;14.00;97.70;;;;;;5093170;28;20024;-69
2023/03/14 08:36:42;;;;;;;3.92;1.58;;;14.10;97.70;;;;;;5082103;28;20502;-69
2023/03/14 08:39:08;;;;;;;4.53;2.00;;;14.10;97.60;;;;;;5078390;28;20021;-68
2023/03/14 08:41:39;;;;;;;4.15;1.63;;;14.20;97.60;;;;;;5086568;28;20039;-69
2023/03/14 08:44:06;;;;;;;3.38;1.60;;;14.30;97.50;;;;;;5095433;28;20030;-69
2023/03/14 08:46:32;;;;;;;3.63;1.70;;;14.30;97.40;;;;;;5092197;28;20559;-69
2023/03/14 08:48:57;;;;;;;7.05;1.70;;;14.30;97.30;;;;;;5088194;28;20120;-67
2023/03/14 08:51:23;;;;;;;4.68;1.80;;;14.40;97.30;;;;;;5075746;28;20040;-68
2023/03/14 08:53:48;;;;;;;4.20;1.90;;;14.40;97.20;;;;;;5084309;28;20432;-67
2023/03/14 08:56:14;;;;;;;3.22;1.70;;;14.40;97.20;;;;;;5091540;28;20496;-67
2023/03/14 08:58:41;;;;;;;4.05;1.73;;;14.50;97.10;;;;;;5087858;28;20459;-67
2023/03/14 09:01:08;;;;;;;3.38;1.90;;;14.50;97.10;;;;;;5086527;28;20035;-67
2023/03/14 09:03:34;;;;;;;2.70;1.58;;;14.50;97.10;;;;;;5099616;28;20454;-67
2023/03/14 09:06:05;;;;;;;5.47;2.15;;;14.50;97.00;;;;;;5097822;28;20107;-67
2023/03/14 09:08:30;;;;;;;4.13;2.13;;;14.60;96.90;;;;;;5089481;28;20071;-68
2023/03/14 09:10:57;;;;;;;4.20;1.85;;;14.60;96.90;;;;;;5091668;28;20028;-66
2023/03/14 09:13:22;;;;;;;4.97;1.95;;;14.60;96.90;;;;;;5090216;28;20036;-67
2023/03/14 09:15:52;;;;;;;5.18;2.88;;;14.70;96.90;;;;;;5090101;28;20031;-68
2023/03/14 09:18:18;;;;;;;8.32;2.85;;;14.70;96.70;;;;;;5088624;28;20441;-68
2023/03/14 09:20:43;;;;;;;6.63;2.15;;;14.80;96.70;;;;;;5108402;28;20016;-68
2023/03/14 09:23:09;;;;;;;3.83;1.65;;;14.90;96.70;;;;;;5089870;28;20114;-68
2023/03/14 09:25:35;;;;;;;8.07;2.20;;;15.00;96.60;;;;;;5099598;28;20483;-67
2023/03/14 09:28:00;;;;;;;3.33;1.55;;;15.00;96.50;;;;;;5101814;28;20034;-66
2023/03/14 09:30:26;;;;;;;2.97;1.50;;;15.00;96.30;;;;;;5103999;28;20479;-66
2023/03/14 09:32:52;;;;;;;4.93;1.83;;;15.00;96.10;;;;;;5056954;28;20051;-66
2023/03/14 09:35:17;;;;;;;5.55;1.90;;;15.00;96.10;;;;;;5087653;28;20078;-66
2023/03/14 09:37:43;;;;;;;6.55;1.85;;;14.90;96.00;;;;;;5096604;28;20471;-66
2023/03/14 09:40:20;;;;;;;4.30;1.65;;;14.90;96.20;;;;;;5092767;28;20028;-66
2023/03/14 09:42:50;;;;;;;3.90;1.60;;;14.90;95.90;;;;;;5097500;28;20024;-67
2023/03/14 09:45:40;;;;;;;3.83;1.80;;;14.90;96.10;;;;;;5107669;28;20081;-67
2023/03/14 09:48:11;;;;;;;4.85;1.80;;;15.00;96.00;;;;;;5066840;28;20086;-67
2023/03/14 09:50:42;;;;;;;3.85;1.52;;;15.00;96.00;;;;;;5105687;28;20368;-65
2023/03/14 09:53:19;;;;;;;5.38;2.00;;;15.10;95.80;;;;;;5090785;28;20059;-66
2023/03/14 09:55:50;;;;;;;5.32;2.33;;;15.10;95.70;;;;;;5091515;28;20028;-67
2023/03/14 09:58:22;;;;;;;3.20;1.50;;;15.10;95.70;;;;;;5110275;27;20052;-66
2023/03/14 10:00:50;;;;;;;3.58;1.58;;;15.10;95.60;;;;;;5088674;28;20763;-67
2023/03/14 10:03:27;;;;;;;5.97;2.40;;;15.10;95.40;;;;;;5107270;28;20387;-66
2023/03/14 10:05:55;;;;;;;3.42;1.70;;;15.10;95.20;;;;;;5091332;28;20035;-66
2023/03/14 10:08:20;;;;;;;3.25;1.58;;;15.10;95.30;;;;;;5098698;28;20039;-66
2023/03/14 10:10:46;;;;;;;2.75;1.52;;;15.10;95.20;;;;;;5090841;28;20028;-68
2023/03/14 10:13:27;;;;;;;6.80;2.13;;;15.10;95.10;;;;;;5094077;28;20491;-67
2023/03/14 10:16:06;;;;;;;4.68;2.10;;;15.10;95.00;;;;;;5091372;28;20028;-67
2023/03/14 10:18:35;;;;;;;3.38;1.65;;;15.20;94.90;;;;;;5095382;28;20040;-67
2023/03/14 10:21:25;;;;;;;2.80;1.50;;;15.20;94.90;;;;;;5093028;28;20020;-67
2023/03/14 10:23:51;;;;;;;3.10;1.70;;;15.20;94.80;;;;;;5089823;28;20050;-67
2023/03/14 10:26:33;;;;;;;6.30;2.38;;;15.20;94.70;;;;;;5097215;28;20028;-65
2023/03/14 10:29:08;;;;;;;4.95;1.90;;;15.30;94.70;;;;;;5082385;28;20036;-66
2023/03/14 10:31:49;;;;;;;5.05;2.25;;;15.30;94.50;;;;;;5093389;28;20054;-65
2023/03/14 10:34:20;;;;;;;5.47;2.22;;;15.30;94.50;;;;;;5092726;28;20023;-65
2023/03/14 10:36:46;;;;;;;4.88;1.75;;;15.30;94.30;;;;;;5085009;28;20290;-65
2023/03/14 10:39:17;;;;;;;5.72;2.75;;;15.30;94.40;;;;;;5098345;28;20610;-66
2023/03/14 10:41:53;;;;;;;3.03;1.98;;;15.30;94.30;;;;;;5093643;28;20016;-66
2023/03/14 10:44:23;;;;;;;2.65;1.60;;;15.40;94.30;;;;;;5098348;28;20534;-66
2023/03/14 10:47:03;;;;;;;3.22;1.50;;;15.40;94.10;;;;;;5089994;28;20519;-66
2023/03/14 10:49:35;;;;;;;2.03;1.20;;;15.30;94.00;;;;;;5104433;28;20486;-66
2023/03/14 10:52:22;;;;;;;3.95;1.30;;;15.30;93.80;;;;;;5090626;28;20434;-65
2023/03/14 10:54:57;;;;;;;3.58;1.65;;;15.30;93.80;;;;;;5085552;28;20024;-66
2023/03/14 10:57:24;;;;;;;3.55;1.58;;;15.30;93.70;;;;;;5092245;28;20116;-66
2023/03/14 10:59:50;;;;;;;5.60;2.05;;;15.30;93.70;;;;;;5092562;28;20024;-64
2023/03/14 11:02:35;;;;;;;4.80;1.65;;;15.30;93.70;;;;;;5095771;28;20023;-65
2023/03/14 11:05:18;;;;;;;3.03;1.50;;;15.30;93.70;;;;;;5096743;28;20672;-66
2023/03/14 11:07:45;;;;;;;4.38;1.80;;;15.30;93.70;;;;;;5094952;28;20076;-65
2023/03/14 11:10:29;;;;;;;3.85;2.10;;;15.30;93.70;;;;;;5112328;28;20497;-65
2023/03/14 11:13:15;;;;;;;2.75;1.30;;;15.40;93.70;;;;;;5095632;28;20040;-67
2023/03/14 11:15:54;;;;;;;4.60;1.58;;;15.40;93.60;;;;;;5077289;28;20050;-63
2023/03/14 11:18:39;;;;;;;4.95;2.22;;;15.50;93.80;;;;;;5092432;28;20112;-65
2023/03/14 11:21:20;;;;;;;7.82;4.88;;;15.50;93.60;;;;;;5085325;28;20024;-64
2023/03/14 11:24:14;;;;;;;8.93;4.95;;;15.50;93.60;;;;;;5089368;28;20031;-64
2023/03/14 11:26:55;;;;;;;6.35;3.90;;;15.50;93.50;;;;;;5076864;28;20042;-66
2023/03/14 11:29:23;;;;;;;4.90;2.50;;;15.60;93.60;;;;;;5082942;28;20040;-63
2023/03/14 11:31:48;;;;;;;4.70;1.90;;;15.60;93.50;;;;;;5090954;28;20020;-66
2023/03/14 11:34:23;;;;;;;7.93;2.35;;;15.60;93.50;;;;;;5090791;28;20526;-67
2023/03/14 11:37:05;;;;;;;;;;;15.60;93.50;;;;;;5078451;28;20020;-66
2023/03/14 11:39:41;;;;;;;4.90;1.55;;;15.60;93.60;;;;;;5099896;28;20279;-67
2023/03/14 11:42:13;;;;;;;3.40;1.45;;;15.50;93.50;;;;;;5092164;28;20016;-66
2023/03/14 11:44:42;;;;;;;2.30;1.13;;;15.50;93.60;;;;;;5077157;28;20039;-67
2023/03/14 11:47:30;;;;;;;4.55;1.75;;;15.50;93.50;;;;;;5080415;28;20017;-66
2023/03/14 11:50:35;;;;;;;3.17;1.30;;;15.50;93.60;;;;;;5084604;28;20031;-66
2023/03/14 11:53:10;;;;;;;4.25;1.38;;;15.50;93.80;;;;;;5076676;28;20039;-67
2023/03/14 11:55:39;;;;;;;6.63;1.80;;;15.50;94.00;;;;;;5093486;28;20486;-67
2023/03/14 11:58:29;;;;;;;2.85;1.48;;;15.50;94.20;;;;;;5102023;28;20092;-67
2023/03/14 12:00:56;;;;;;;3.08;1.88;;;15.50;94.20;;;;;;5087370;28;20025;-67
2023/03/14 12:03:40;;;;;;;4.22;1.48;;;15.50;94.20;;;;;;5086216;28;20118;-67
2023/03/14 12:06:24;;;;;;;2.85;1.40;;;15.60;94.20;;;;;;5089257;28;20133;-67
2023/03/14 12:08:58;;;;;;;3.55;1.70;;;15.60;94.20;;;;;;5100953;28;20435;-68
2023/03/14 12:11:56;;;;;;;3.38;2.45;;;15.70;94.20;;;;;;5099274;28;20032;-67
2023/03/14 12:14:33;;;;;;;4.05;1.88;;;15.70;94.20;;;;;;5101971;28;20050;-67
2023/03/14 12:17:20;;;;;;;4.50;1.48;;;15.80;94.30;;;;;;5089665;28;20028;-66
2023/03/14 12:19:47;;;;;;;5.75;1.30;;;15.80;94.30;;;;;;5093992;28;20028;-65
2023/03/14 12:22:13;;;;;;;6.72;2.45;;;15.80;94.30;;;;;;5086481;28;20037;-65
2023/03/14 12:24:44;;;;;;;2.72;1.20;;;15.80;94.30;;;;;;5088562;28;20085;-67
2023/03/14 12:27:33;;;;;;;7.40;1.83;;;15.90;94.40;;;;;;5090393;28;20107;-67
2023/03/14 12:30:00;;;;;;;4.30;1.42;;;15.90;94.40;;;;;;5104533;28;20016;-66
2023/03/14 12:32:27;;;;;;;2.72;1.40;;;15.90;94.50;;;;;;5090557;28;20506;-66
2023/03/14 12:34:52;;;;;;;2.33;1.50;;;15.90;94.50;;;;;;5095773;28;20056;-66
2023/03/14 12:37:34;;;;;;;2.67;1.23;;;16.00;94.50;;;;;;5090544;28;20471;-66
2023/03/14 12:40:20;;;;;;;4.07;1.77;;;16.00;94.40;;;;;;5072077;28;20060;-66
2023/03/14 12:43:00;;;;;;;3.58;1.52;;;16.00;94.30;;;;;;5090567;28;20089;-66
2023/03/14 12:45:29;;;;;;;3.10;1.40;;;16.00;94.50;;;;;;5070782;28;20356;-66
2023/03/14 12:48:23;;;;;;;2.97;1.20;;;16.00;94.60;;;;;;5080485;28;20103;-66
2023/03/14 12:51:05;;;;;;;2.50;1.25;;;16.00;94.80;;;;;;5092100;28;20554;-65
2023/03/14 12:53:58;;;;;;;4.05;1.15;;;15.90;94.90;;;;;;5090289;28;20043;-66
2023/03/14 12:56:48;;;;;;;3.50;1.75;;;16.00;95.00;;;;;;5075264;28;20071;-66